Time;durP1;ratioP1;P1;durP2;ratioP2;P2;SDS_P1;SDS_P2;PMS_P1;PMS_P2;Temp;Humidity;BMP_temperature;BMP_pressure;BME280_temperature;BME280_humidity;BME280_pressure;Samples;Min_cycle;Max_cycle;Signal;HPM_P1;HPM_P2
2022/12/07 00:01:08;;;;;;;12.53;6.37;;;;;;;7.43;69.85;100795.88;5118961;27;20298;-70
2022/12/07 00:03:37;;;;;;;12.00;6.20;;;;;;;7.47;69.42;100792.88;5128540;27;20214;-70
2022/12/07 00:06:06;;;;;;;10.30;5.67;;;;;;;7.49;69.43;100790.09;5131202;27;20202;-70
2022/12/07 00:08:36;;;;;;;11.40;6.30;;;;;;;7.44;69.67;100782.56;5125063;27;20221;-70
2022/12/07 00:11:05;;;;;;;14.60;6.77;;;;;;;7.42;69.68;100788.91;5126583;27;20244;-69
2022/12/07 00:13:34;;;;;;;12.17;6.50;;;;;;;7.28;70.04;100786.50;5124402;27;20214;-70
2022/12/07 00:16:04;;;;;;;11.80;5.77;;;;;;;7.32;70.15;100783.50;5127609;27;20294;-71
2022/12/07 00:18:32;;;;;;;11.50;6.03;;;;;;;7.34;70.42;100776.31;5126977;27;20207;-70
2022/12/07 00:21:01;;;;;;;13.10;6.00;;;;;;;7.40;70.40;100769.72;5128813;27;20222;-70
2022/12/07 00:23:29;;;;;;;14.30;7.40;;;;;;;7.38;70.26;100776.94;5128131;27;20214;-70
2022/12/07 00:26:04;;;;;;;10.30;6.27;;;;;;;7.37;70.30;100778.72;5122960;27;20199;-70
2022/12/07 00:28:33;;;;;;;13.37;6.93;;;;;;;7.33;70.43;100773.78;5129585;27;20244;-70
2022/12/07 00:31:03;;;;;;;15.97;7.43;;;;;;;7.34;70.74;100778.13;5127441;27;20226;-71
2022/12/07 00:33:31;;;;;;;13.00;6.23;;;;;;;7.39;70.61;100771.50;5124127;27;20290;-70
2022/12/07 00:35:59;;;;;;;12.33;6.40;;;;;;;7.43;70.39;100770.31;5126481;27;20559;-69
2022/12/07 00:38:30;;;;;;;12.17;6.60;;;;;;;7.48;70.47;100762.88;5122876;27;20668;-70
2022/12/07 00:41:00;;;;;;;12.77;6.30;;;;;;;7.58;70.00;100757.69;5129376;27;20194;-70
2022/12/07 00:43:29;;;;;;;12.93;6.33;;;;;;;7.67;69.56;100764.88;5127740;27;20559;-70
2022/12/07 00:45:57;;;;;;;16.60;6.60;;;;;;;7.67;69.60;100758.75;5125204;27;20233;-70
2022/12/07 00:48:27;;;;;;;11.13;5.83;;;;;;;7.61;69.56;100762.75;5126601;27;20203;-70
2022/12/07 00:50:55;;;;;;;12.53;7.17;;;;;;;7.51;69.88;100764.44;5130283;27;20237;-70
2022/12/07 00:53:23;;;;;;;12.60;6.63;;;;;;;7.38;70.41;100761.09;5127885;27;20299;-70
2022/12/07 00:55:52;;;;;;;12.40;6.37;;;;;;;7.45;70.31;100764.94;5123835;27;20611;-70
2022/12/07 00:58:21;;;;;;;15.63;7.27;;;;;;;7.51;70.42;100757.34;5124007;27;20216;-70
2022/12/07 01:00:49;;;;;;;13.77;6.57;;;;;;;7.50;70.21;100752.19;5124454;27;20220;-70
2022/12/07 01:03:17;;;;;;;11.23;6.00;;;;;;;7.47;70.38;100741.91;5123891;27;20203;-70
2022/12/07 01:05:52;;;;;;;11.07;6.27;;;;;;;7.50;70.34;100741.63;5127827;27;20302;-70
2022/12/07 01:08:20;;;;;;;12.37;5.90;;;;;;;7.47;70.35;100734.00;5126973;27;20533;-70
2022/12/07 01:10:49;;;;;;;12.70;6.57;;;;;;;7.37;70.53;100739.16;5120131;27;20221;-69
2022/12/07 01:13:17;;;;;;;10.30;6.33;;;;;;;7.33;71.16;100742.97;5122411;27;20204;-70
2022/12/07 01:15:46;;;;;;;13.47;6.40;;;;;;;7.33;71.31;100742.97;5121628;27;20221;-70
2022/12/07 01:18:14;;;;;;;11.60;5.97;;;;;;;7.32;71.28;100738.66;5128091;27;20206;-70
2022/12/07 01:20:41;;;;;;;16.80;6.63;;;;;;;7.40;71.42;100745.97;5130071;27;20218;-70
2022/12/07 01:23:09;;;;;;;11.40;6.67;;;;;;;7.43;70.85;100745.72;5128685;27;20836;-70
2022/12/07 01:25:37;;;;;;;11.17;6.40;;;;;;;7.39;70.72;100746.91;5123045;27;20964;-70
2022/12/07 01:28:05;;;;;;;12.53;6.37;;;;;;;7.36;71.04;100741.91;5123161;27;20247;-70
2022/12/07 01:30:33;;;;;;;13.27;6.67;;;;;;;7.39;71.10;100746.91;5124079;27;20206;-70
2022/12/07 01:33:02;;;;;;;13.20;6.70;;;;;;;7.32;70.94;100745.72;5125155;27;20347;-71
2022/12/07 01:35:29;;;;;;;11.67;6.63;;;;;;;7.17;71.39;100753.06;5123807;27;20211;-71
2022/12/07 01:37:57;;;;;;;15.23;6.60;;;;;;;7.15;71.60;100744.41;5126632;27;20202;-71
2022/12/07 01:40:25;;;;;;;10.57;5.90;;;;;;;7.11;71.56;100743.84;5121488;27;20217;-71
2022/12/07 01:42:52;;;;;;;11.30;6.07;;;;;;;7.17;71.21;100745.97;5119394;27;20205;-70
2022/12/07 01:45:40;;;;;;;11.53;6.23;;;;;;;7.06;71.56;100751.25;5122497;27;20273;-71
2022/12/07 01:48:12;;;;;;;12.33;7.03;;;;;;;7.10;71.74;100755.34;5128253;27;20220;-71
2022/12/07 01:50:42;;;;;;;11.77;6.03;;;;;;;7.14;71.47;100758.56;5124024;27;20203;-70
2022/12/07 01:53:11;;;;;;;11.87;5.93;;;;;;;7.14;71.21;100755.91;5123468;27;20233;-70
2022/12/07 01:55:42;;;;;;;11.07;5.90;;;;;;;7.15;70.88;100742.63;5126947;27;20829;-71
2022/12/07 01:58:12;;;;;;;10.93;5.73;;;;;;;7.14;70.56;100748.00;5125589;27;20294;-71
2022/12/07 02:00:41;;;;;;;13.37;6.53;;;;;;;7.16;70.33;100741.66;5118508;27;20245;-71
2022/12/07 02:03:16;;;;;;;12.40;6.10;;;;;;;7.15;70.26;100737.34;5123571;27;20206;-71
2022/12/07 02:05:45;;;;;;;12.60;6.30;;;;;;;7.18;70.08;100731.84;5120934;27;20207;-71
2022/12/07 02:08:14;;;;;;;9.97;5.60;;;;;;;7.15;70.03;100734.69;5120235;27;20232;-71
2022/12/07 02:10:42;;;;;;;10.10;5.87;;;;;;;7.10;70.11;100731.59;5119498;27;20226;-71
2022/12/07 02:13:14;;;;;;;10.93;6.20;;;;;;;7.09;70.27;100735.19;5124055;27;20223;-73
2022/12/07 02:15:57;;;;;;;10.80;5.83;;;;;;;7.02;70.49;100738.44;5120511;27;20210;-71
2022/12/07 02:18:39;;;;;;;10.73;5.97;;;;;;;6.97;70.40;100744.03;5121944;27;20203;-71
2022/12/07 02:21:12;;;;;;;10.50;5.67;;;;;;;6.89;70.83;100738.53;5121594;27;20197;-71
2022/12/07 02:24:01;;;;;;;11.53;6.00;;;;;;;6.94;70.74;100741.66;5120748;27;20197;-71
2022/12/07 02:27:08;;;;;;;9.53;5.37;;;;;;;6.87;71.04;100735.16;5119176;27;20202;-70
2022/12/07 02:29:43;;;;;;;11.73;6.23;;;;;;;6.99;70.87;100730.75;5120172;27;20669;-71
2022/12/07 02:32:17;;;;;;;12.53;6.93;;;;;;;7.09;70.37;100731.72;5121210;27;20234;-70
2022/12/07 02:34:51;;;;;;;11.87;6.40;;;;;;;7.08;70.33;100732.66;5119067;27;20658;-70
2022/12/07 02:37:30;;;;;;;13.03;6.57;;;;;;;6.99;70.50;100728.94;5118164;27;20206;-70
2022/12/07 02:40:03;;;;;;;15.63;7.30;;;;;;;6.98;70.63;100737.81;5121637;27;20707;-70
2022/12/07 02:42:36;;;;;;;11.43;6.03;;;;;;;6.95;70.87;100716.94;5121861;27;20205;-70
2022/12/07 02:45:07;;;;;;;12.93;6.90;;;;;;;6.94;71.23;100714.47;5119547;27;20207;-70
2022/12/07 02:47:37;;;;;;;10.57;5.80;;;;;;;7.02;70.78;100712.91;5120447;27;20211;-71
2022/12/07 02:50:06;;;;;;;10.40;6.20;;;;;;;6.93;70.71;100705.72;5118986;27;20228;-71
2022/12/07 02:52:34;;;;;;;10.17;5.50;;;;;;;6.99;71.05;100702.59;5118949;27;20913;-70
2022/12/07 02:55:02;;;;;;;13.50;6.50;;;;;;;7.08;70.53;100707.13;5122074;27;20202;-70
2022/12/07 02:57:43;;;;;;;11.70;5.70;;;;;;;7.05;70.70;100709.16;5128014;27;20221;-70
2022/12/07 03:00:15;;;;;;;11.60;6.53;;;;;;;7.00;70.70;100719.25;5123561;27;20204;-70
2022/12/07 03:02:52;;;;;;;11.30;5.93;;;;;;;7.11;70.47;100706.91;5121286;27;20209;-71
2022/12/07 03:05:43;;;;;;;11.10;5.87;;;;;;;7.26;69.92;100704.00;5122937;27;21121;-70
2022/12/07 03:08:20;;;;;;;11.63;6.07;;;;;;;7.16;69.35;100694.19;5123283;27;20202;-71
2022/12/07 03:10:55;;;;;;;11.77;6.20;;;;;;;6.95;69.95;100689.78;5123270;27;20227;-70
2022/12/07 03:13:29;;;;;;;9.47;5.67;;;;;;;6.84;71.10;100695.03;5123486;27;20234;-70
2022/12/07 03:16:04;;;;;;;10.50;5.60;;;;;;;6.84;70.80;100695.88;5123033;27;20209;-70
2022/12/07 03:18:37;;;;;;;12.20;6.20;;;;;;;6.82;71.02;100694.31;5122283;27;20334;-70
2022/12/07 03:21:11;;;;;;;12.20;6.13;;;;;;;6.75;71.11;100686.03;5128289;27;20663;-70
2022/12/07 03:23:42;;;;;;;12.60;6.13;;;;;;;6.70;71.37;100690.81;5123182;27;20296;-70
2022/12/07 03:26:13;;;;;;;12.30;6.17;;;;;;;6.69;71.34;100695.22;5120707;27;20714;-70
2022/12/07 03:28:48;;;;;;;11.20;5.67;;;;;;;6.66;71.45;100695.50;5118937;27;20242;-69
2022/12/07 03:31:22;;;;;;;10.20;5.03;;;;;;;6.74;71.07;100687.00;5119693;27;20212;-70
2022/12/07 03:33:59;;;;;;;9.73;5.30;;;;;;;6.64;70.87;100692.13;5119020;27;20315;-69
2022/12/07 03:36:32;;;;;;;9.47;5.17;;;;;;;6.65;71.40;100687.69;5117428;27;20221;-70
2022/12/07 03:39:09;;;;;;;11.27;6.17;;;;;;;6.62;71.45;100677.38;5118366;27;20214;-71
2022/12/07 03:41:39;;;;;;;10.40;5.50;;;;;;;6.63;71.72;100676.44;5119534;27;21826;-70
2022/12/07 03:44:12;;;;;;;11.70;6.00;;;;;;;6.69;71.79;100683.84;5116950;27;20209;-69
2022/12/07 03:46:45;;;;;;;10.83;5.40;;;;;;;6.66;71.52;100684.13;5119550;27;20209;-69
2022/12/07 03:49:25;;;;;;;11.77;5.73;;;;;;;6.71;71.87;100688.06;5119281;27;20202;-69
2022/12/07 03:51:58;;;;;;;10.00;5.37;;;;;;;6.80;71.33;100686.50;5119779;27;20209;-69
2022/12/07 03:54:31;;;;;;;11.00;5.50;;;;;;;6.92;71.37;100684.72;5122069;27;20210;-70
2022/12/07 03:57:00;;;;;;;12.13;5.47;;;;;;;7.04;70.88;100684.59;5121152;27;20730;-70
2022/12/07 03:59:29;;;;;;;11.40;6.57;;;;;;;7.14;70.72;100685.56;5119299;27;20220;-70
2022/12/07 04:02:03;;;;;;;11.83;5.90;;;;;;;7.18;70.60;100681.72;5120640;27;20244;-70
2022/12/07 04:04:31;;;;;;;9.87;5.73;;;;;;;7.25;70.56;100673.31;5122530;27;20201;-70
2022/12/07 04:06:59;;;;;;;11.20;5.37;;;;;;;7.25;70.47;100683.88;5122088;27;20763;-70
2022/12/07 04:09:28;;;;;;;9.70;5.03;;;;;;;7.18;69.79;100684.38;5125120;27;20286;-71
2022/12/07 04:11:57;;;;;;;10.13;5.30;;;;;;;7.14;69.41;100690.00;5128025;27;20228;-70
2022/12/07 04:14:25;;;;;;;9.13;4.93;;;;;;;7.12;69.37;100686.66;5128241;27;20353;-69
2022/12/07 04:16:56;;;;;;;8.47;4.83;;;;;;;7.11;69.21;100684.97;5125065;27;20566;-70
2022/12/07 04:19:28;;;;;;;10.30;5.67;;;;;;;7.12;69.08;100684.03;5123318;27;20218;-71
2022/12/07 04:21:56;;;;;;;9.43;4.87;;;;;;;7.13;68.89;100683.03;5121698;27;20214;-70
2022/12/07 04:24:26;;;;;;;9.70;5.10;;;;;;;7.17;68.54;100681.84;5125966;27;20653;-70
2022/12/07 04:26:55;;;;;;;10.57;5.43;;;;;;;7.18;68.71;100676.44;5122615;27;20202;-70
2022/12/07 04:29:26;;;;;;;10.63;5.53;;;;;;;7.14;68.49;100679.44;5120310;27;20240;-70
2022/12/07 04:31:55;;;;;;;11.40;5.20;;;;;;;7.22;68.58;100674.41;5124597;27;20215;-70
2022/12/07 04:34:22;;;;;;;10.50;5.60;;;;;;;7.22;68.36;100679.66;5125700;27;20667;-70
2022/12/07 04:36:51;;;;;;;9.37;5.67;;;;;;;7.28;68.52;100675.72;5121283;27;20663;-69
2022/12/07 04:39:23;;;;;;;10.67;5.80;;;;;;;7.41;68.24;100679.88;5120993;27;20208;-69
2022/12/07 04:41:50;;;;;;;10.40;5.97;;;;;;;7.45;67.95;100681.34;5127150;27;20203;-70
2022/12/07 04:44:19;;;;;;;10.23;5.87;;;;;;;7.52;67.75;100681.66;5122739;27;20195;-69
2022/12/07 04:46:47;;;;;;;10.83;5.70;;;;;;;7.51;67.55;100680.84;5122755;27;20565;-69
2022/12/07 04:49:16;;;;;;;11.43;6.33;;;;;;;7.56;67.50;100676.00;5127353;27;20284;-69
2022/12/07 04:51:45;;;;;;;13.50;7.00;;;;;;;7.55;67.27;100673.53;5119625;27;20214;-69
2022/12/07 04:54:16;;;;;;;13.13;6.97;;;;;;;7.59;67.18;100674.94;5119975;27;20236;-69
2022/12/07 04:56:44;;;;;;;13.87;6.90;;;;;;;7.56;67.23;100680.47;5117272;27;20208;-69
2022/12/07 04:59:12;;;;;;;11.40;6.60;;;;;;;7.53;67.54;100670.16;5116822;27;20263;-70
2022/12/07 05:01:40;;;;;;;10.97;6.30;;;;;;;7.58;67.20;100667.97;5126745;27;20210;-70
2022/12/07 05:04:10;;;;;;;11.53;5.97;;;;;;;7.61;66.94;100666.91;5131270;27;20549;-69
2022/12/07 05:06:37;;;;;;;13.63;6.67;;;;;;;7.46;67.45;100671.63;5129925;27;20231;-69
2022/12/07 05:09:05;;;;;;;12.03;6.10;;;;;;;7.36;68.50;100666.25;5125444;27;20207;-69
2022/12/07 05:11:40;;;;;;;10.00;6.07;;;;;;;7.38;68.50;100666.13;5125824;27;20258;-70
2022/12/07 05:14:12;;;;;;;16.07;6.47;;;;;;;7.37;68.44;100670.56;5123422;27;20819;-71
2022/12/07 05:16:41;;;;;;;10.63;6.33;;;;;;;7.37;68.71;100675.00;5121225;27;20684;-70
2022/12/07 05:19:09;;;;;;;12.70;6.53;;;;;;;7.37;69.11;100669.72;5124490;27;20211;-70
2022/12/07 05:21:38;;;;;;;11.57;6.03;;;;;;;7.40;68.94;100675.56;5122892;27;20215;-70
2022/12/07 05:24:07;;;;;;;12.33;6.60;;;;;;;7.37;68.65;100672.34;5125995;27;20666;-70
2022/12/07 05:26:36;;;;;;;10.77;6.57;;;;;;;7.34;68.88;100675.22;5123510;27;20499;-69
2022/12/07 05:29:04;;;;;;;12.43;6.33;;;;;;;7.33;69.19;100681.47;5125199;27;20726;-69
2022/12/07 05:31:32;;;;;;;13.33;7.20;;;;;;;7.35;69.15;100676.91;5122071;27;20225;-69
2022/12/07 05:34:01;;;;;;;11.77;6.43;;;;;;;7.44;68.76;100674.38;5122122;27;20256;-69
2022/12/07 05:36:30;;;;;;;13.50;6.30;;;;;;;7.42;68.74;100675.44;5125541;27;20267;-69
2022/12/07 05:38:59;;;;;;;12.07;6.60;;;;;;;7.38;68.55;100676.69;5121547;27;20200;-70
2022/12/07 05:44:15;;;;;;;11.33;6.00;;;;;;;7.54;68.26;100666.56;5122363;27;20230;-70
2022/12/07 05:46:42;;;;;;;12.93;6.27;;;;;;;7.67;67.93;100672.50;5123257;27;20808;-70
2022/12/07 05:49:10;;;;;;;13.60;7.20;;;;;;;7.75;67.47;100674.53;5122345;27;20204;-70
2022/12/07 05:51:38;;;;;;;12.87;6.43;;;;;;;7.72;67.84;100674.78;5123376;27;20298;-71
2022/12/07 05:54:06;;;;;;;12.40;7.23;;;;;;;7.74;67.74;100678.97;5129009;27;20238;-69
2022/12/07 05:56:33;;;;;;;15.30;7.50;;;;;;;7.68;67.98;100670.72;5128204;27;20287;-69
2022/12/07 06:01:48;;;;;;;11.27;6.53;;;;;;;7.58;67.74;100662.69;5126391;27;20304;-69
2022/12/07 06:04:15;;;;;;;12.37;6.33;;;;;;;7.49;67.90;100664.28;5127578;27;20203;-69
2022/12/07 06:06:43;;;;;;;15.70;7.47;;;;;;;7.49;68.29;100663.44;5133485;27;20207;-69
2022/12/07 06:09:12;;;;;;;11.23;6.43;;;;;;;7.44;68.51;100666.47;5123788;27;20208;-69
2022/12/07 06:14:22;;;;;;;11.37;6.30;;;;;;;7.40;68.56;100675.56;5108069;27;20223;-69
2022/12/07 06:16:52;;;;;;;13.03;6.13;;;;;;;7.37;68.78;100675.00;5125635;27;20214;-69
2022/12/07 06:19:19;;;;;;;12.07;6.33;;;;;;;7.34;68.84;100675.22;5124118;27;20210;-69
2022/12/07 06:21:47;;;;;;;12.30;7.10;;;;;;;7.34;69.09;100675.22;5130578;27;20571;-69
2022/12/07 06:24:17;;;;;;;12.90;6.23;;;;;;;7.32;69.33;100683.25;5132943;27;20613;-69
2022/12/07 06:26:45;;;;;;;11.53;6.27;;;;;;;7.28;69.58;100678.38;5125281;27;20257;-69
2022/12/07 06:29:13;;;;;;;11.97;6.83;;;;;;;7.23;69.56;100672.59;5130535;27;20258;-69
2022/12/07 06:31:41;;;;;;;10.10;6.00;;;;;;;7.25;69.67;100675.97;5124053;27;20215;-69
2022/12/07 06:34:13;;;;;;;11.07;6.50;;;;;;;7.24;69.68;100672.47;5125108;27;20687;-69
2022/12/07 06:36:41;;;;;;;10.03;6.40;;;;;;;7.25;69.79;100675.97;5122233;27;20219;-69
2022/12/07 06:39:09;;;;;;;12.47;6.43;;;;;;;7.25;69.81;100681.22;5128986;27;20202;-69
2022/12/07 06:41:38;;;;;;;13.37;6.43;;;;;;;7.22;69.87;100677.03;5127589;27;20256;-69
2022/12/07 06:44:06;;;;;;;11.17;7.13;;;;;;;7.24;69.96;100695.38;5133002;27;20538;-69
2022/12/07 06:46:35;;;;;;;11.13;7.03;;;;;;;7.36;69.77;100683.88;5123241;27;20204;-69
2022/12/07 06:49:03;;;;;;;13.27;7.27;;;;;;;7.43;69.20;100685.03;5121889;27;20205;-69
2022/12/07 06:51:32;;;;;;;12.60;6.80;;;;;;;7.36;69.31;100674.16;5124102;27;20242;-68
2022/12/07 06:54:00;;;;;;;11.07;5.87;;;;;;;7.33;69.60;100677.03;5124554;27;20285;-68
2022/12/07 06:56:28;;;;;;;16.83;7.20;;;;;;;7.33;69.31;100678.81;5132432;27;20536;-69
2022/12/07 06:58:56;;;;;;;10.93;6.03;;;;;;;7.33;69.47;100678.81;5130342;27;20672;-69
2022/12/07 07:01:24;;;;;;;10.63;6.33;;;;;;;7.38;69.16;100682.78;5127208;27;20204;-69
2022/12/07 07:03:52;;;;;;;13.50;6.73;;;;;;;7.42;68.77;100684.22;5120244;27;20295;-70
2022/12/07 07:06:19;;;;;;;12.93;7.20;;;;;;;7.36;68.90;100687.34;5126659;27;20303;-69
2022/12/07 07:08:49;;;;;;;12.53;7.17;;;;;;;7.36;69.29;100686.50;5125303;28;20199;-69
2022/12/07 07:11:17;;;;;;;13.07;6.87;;;;;;;7.45;69.08;100693.69;5128472;28;20231;-69
2022/12/07 07:13:45;;;;;;;13.37;7.13;;;;;;;7.48;68.78;100686.34;5127870;28;20282;-68
2022/12/07 07:16:13;;;;;;;17.70;7.73;;;;;;;7.42;69.10;100689.47;5128986;27;20656;-69
2022/12/07 07:18:41;;;;;;;15.07;7.00;;;;;;;7.47;69.18;100694.41;5129056;27;20658;-69
2022/12/07 07:21:09;;;;;;;13.30;6.77;;;;;;;7.43;69.32;100695.59;5122743;27;20204;-69
2022/12/07 07:23:37;;;;;;;17.17;7.97;;;;;;;7.48;69.22;100694.25;5126743;28;20211;-69
2022/12/07 07:26:06;;;;;;;12.63;7.20;;;;;;;7.61;69.13;100698.56;5124209;28;20533;-70
2022/12/07 07:28:34;;;;;;;14.13;7.27;;;;;;;7.66;68.58;100691.94;5131241;27;20236;-69
2022/12/07 07:31:02;;;;;;;14.27;7.40;;;;;;;7.65;68.81;100694.72;5124017;27;20211;-69
2022/12/07 07:33:29;;;;;;;17.00;7.30;;;;;;;7.67;68.80;100690.97;5125858;27;20232;-69
2022/12/07 07:35:58;;;;;;;12.13;7.40;;;;;;;7.49;68.86;100697.75;5130447;27;20219;-69
2022/12/07 07:38:25;;;;;;;13.00;7.33;;;;;;;7.42;69.24;100704.47;5125510;27;20219;-69
2022/12/07 07:40:53;;;;;;;16.57;7.67;;;;;;;7.32;70.06;100703.53;5127944;27;20666;-69
2022/12/07 07:43:22;;;;;;;14.50;8.57;;;;;;;7.23;70.47;100706.88;5127559;27;20770;-69
2022/12/07 07:45:50;;;;;;;14.83;8.30;;;;;;;7.30;70.69;100708.09;5129310;27;20298;-69
2022/12/07 07:48:18;;;;;;;14.70;7.60;;;;;;;7.44;70.32;100706.03;5128790;27;20211;-68
2022/12/07 07:50:46;;;;;;;13.70;8.03;;;;;;;7.54;69.45;100714.06;5126425;27;20213;-69
2022/12/07 07:53:13;;;;;;;13.93;8.20;;;;;;;7.55;69.27;100702.53;5132373;27;20219;-69
2022/12/07 07:55:41;;;;;;;18.97;8.57;;;;;;;7.51;69.47;100709.00;5133829;27;20267;-69
2022/12/07 07:58:09;;;;;;;13.87;8.00;;;;;;;7.49;69.42;100717.06;5136515;27;20208;-69
2022/12/07 08:00:38;;;;;;;14.17;8.03;;;;;;;7.62;69.23;100713.44;5127360;27;20231;-68
2022/12/07 08:03:06;;;;;;;17.07;8.27;;;;;;;7.67;69.00;100714.75;5129118;27;20207;-67
2022/12/07 08:05:33;;;;;;;14.53;8.17;;;;;;;7.73;68.67;100716.06;5133383;27;20698;-68
2022/12/07 08:08:01;;;;;;;13.63;7.40;;;;;;;7.72;68.59;100717.88;5133903;27;20218;-68
2022/12/07 08:10:29;;;;;;;15.93;7.60;;;;;;;7.67;68.78;100720.00;5127206;27;20685;-68
2022/12/07 08:13:13;;;;;;;15.73;8.07;;;;;;;7.60;69.30;100718.84;5127319;27;20220;-67
2022/12/07 08:15:44;;;;;;;15.90;8.57;;;;;;;7.76;68.99;100714.00;5136329;27;20919;-69
2022/12/07 08:18:13;;;;;;;13.97;7.87;;;;;;;7.83;68.46;100715.16;5130268;27;20680;-68
2022/12/07 08:20:42;;;;;;;12.87;7.20;;;;;;;7.87;68.21;100715.78;5128765;27;20230;-68
2022/12/07 08:23:11;;;;;;;17.77;8.73;;;;;;;7.90;68.03;100719.00;5131554;27;20324;-69
2022/12/07 08:25:39;;;;;;;16.53;9.03;;;;;;;7.88;68.04;100715.66;5128430;27;20215;-68
2022/12/07 08:28:08;;;;;;;12.80;8.00;;;;;;;7.87;67.70;100715.78;5130641;27;20235;-68
2022/12/07 08:30:35;;;;;;;15.67;8.40;;;;;;;7.88;67.84;100718.28;5129022;27;20210;-67
2022/12/07 08:33:04;;;;;;;15.67;7.47;;;;;;;7.91;67.92;100718.06;5129785;27;20210;-69
2022/12/07 08:35:34;;;;;;;17.57;8.77;;;;;;;7.86;68.06;100717.56;5126520;27;20236;-68
2022/12/07 08:38:03;;;;;;;16.97;8.63;;;;;;;7.87;68.20;100721.91;5128486;27;20207;-68
2022/12/07 08:40:31;;;;;;;18.37;8.57;;;;;;;7.95;68.20;100729.19;5121694;27;20219;-68
2022/12/07 08:42:59;;;;;;;18.37;9.10;;;;;;;8.03;67.78;100720.63;5133238;27;20209;-69
2022/12/07 08:45:27;;;;;;;18.27;9.40;;;;;;;7.98;68.31;100725.47;5140797;27;20212;-67
2022/12/07 08:47:59;;;;;;;17.97;8.63;;;;;;;8.01;67.92;100717.28;5126960;27;20567;-67
2022/12/07 08:50:39;;;;;;;16.30;9.13;;;;;;;7.95;68.60;100721.25;5134298;27;20221;-67
2022/12/07 08:53:16;;;;;;;18.33;9.77;;;;;;;7.94;68.70;100725.72;5131754;27;20206;-68
2022/12/07 08:55:45;;;;;;;18.07;9.20;;;;;;;8.00;69.03;100726.19;5135382;27;20238;-68
2022/12/07 08:58:13;;;;;;;14.87;8.97;;;;;;;8.16;68.54;100716.88;5127082;27;20718;-66
2022/12/07 09:00:41;;;;;;;16.67;8.80;;;;;;;8.27;68.08;100718.59;5127676;27;20215;-68
2022/12/07 09:03:08;;;;;;;18.30;8.93;;;;;;;8.37;67.63;100713.44;5125592;27;20218;-68
2022/12/07 09:05:37;;;;;;;15.57;8.07;;;;;;;8.45;67.47;100717.09;5133745;27;20208;-68
2022/12/07 09:08:07;;;;;;;16.53;9.50;;;;;;;8.52;67.30;100715.66;5130889;27;20337;-68
2022/12/07 09:10:34;;;;;;;14.97;8.80;;;;;;;8.59;66.97;100724.72;5128467;27;20594;-68
2022/12/07 09:13:02;;;;;;;16.10;9.20;;;;;;;8.60;66.42;100721.13;5128217;27;20220;-68
2022/12/07 09:15:31;;;;;;;14.47;8.40;;;;;;;8.64;66.18;100722.53;5129341;27;20227;-69
2022/12/07 09:17:58;;;;;;;15.23;8.63;;;;;;;8.62;66.02;100728.91;5125998;27;20248;-68
2022/12/07 09:20:26;;;;;;;19.90;9.20;;;;;;;8.64;66.09;100722.53;5124085;27;20213;-67
2022/12/07 09:22:58;;;;;;;16.27;9.10;;;;;;;8.68;66.14;100726.59;5123090;27;20197;-68
2022/12/07 09:25:26;;;;;;;15.67;8.37;;;;;;;8.73;65.93;100722.72;5125471;27;20215;-68
2022/12/07 09:27:56;;;;;;;15.43;8.43;;;;;;;8.74;65.90;100735.81;5126442;27;20209;-69
2022/12/07 09:30:24;;;;;;;15.00;8.60;;;;;;;8.78;66.00;100729.31;5130004;27;20521;-69
2022/12/07 09:32:54;;;;;;;15.10;8.93;;;;;;;8.87;65.81;100728.53;5125659;27;20685;-67
2022/12/07 09:35:23;;;;;;;13.93;8.70;;;;;;;8.90;65.67;100722.97;5128017;27;20220;-68
2022/12/07 09:37:51;;;;;;;14.13;8.43;;;;;;;9.04;65.28;100724.44;5124789;27;20230;-68
2022/12/07 09:40:23;;;;;;;14.07;8.03;;;;;;;9.14;65.07;100722.66;5123435;27;20261;-67
2022/12/07 09:42:53;;;;;;;14.87;8.40;;;;;;;9.14;64.88;100725.31;5130368;27;20574;-68
2022/12/07 09:45:25;;;;;;;13.33;8.07;;;;;;;9.22;64.67;100719.34;5129510;27;20240;-67
2022/12/07 09:47:53;;;;;;;13.83;8.70;;;;;;;9.28;64.45;100721.47;5131952;27;20201;-68
2022/12/07 09:50:23;;;;;;;14.03;8.20;;;;;;;9.41;64.03;100716.78;5129422;27;20219;-68
2022/12/07 09:52:53;;;;;;;15.17;7.93;;;;;;;9.51;63.56;100716.78;5130784;27;20204;-69
2022/12/07 09:55:26;;;;;;;13.13;7.20;;;;;;;9.61;63.20;100717.66;5130577;27;20231;-67
2022/12/07 09:57:54;;;;;;;13.63;8.00;;;;;;;9.67;63.04;100717.13;5127518;27;20198;-67
2022/12/07 10:00:25;;;;;;;11.00;7.07;;;;;;;9.75;62.76;100715.47;5120839;27;20202;-67
2022/12/07 10:02:56;;;;;;;12.97;7.80;;;;;;;9.95;62.16;100720.78;5125432;27;20666;-69
2022/12/07 10:05:30;;;;;;;12.00;7.43;;;;;;;10.11;61.53;100711.31;5133838;27;20232;-68
2022/12/07 10:07:58;;;;;;;11.23;6.57;;;;;;;10.42;61.03;100712.03;5127924;27;20210;-68
2022/12/07 10:10:34;;;;;;;12.17;5.97;;;;;;;11.17;58.51;100712.97;5125999;27;20206;-68
2022/12/07 10:13:07;;;;;;;14.03;6.80;;;;;;;11.48;56.81;100710.84;5131110;27;20266;-66
2022/12/07 10:15:47;;;;;;;11.73;5.90;;;;;;;11.49;56.26;100700.09;5132185;27;20229;-67
2022/12/07 10:18:27;;;;;;;10.53;6.30;;;;;;;11.99;55.43;100697.81;5123727;27;20203;-69
2022/12/07 10:21:07;;;;;;;10.87;6.43;;;;;;;12.32;53.79;100693.63;5127800;27;20223;-69
2022/12/07 10:23:36;;;;;;;10.17;5.93;;;;;;;12.15;54.24;100683.00;5123331;27;20204;-69
2022/12/07 10:28:59;;;;;;;11.37;5.87;;;;;;;13.41;51.87;100691.31;5145300;27;20547;-68
2022/12/07 10:31:27;;;;;;;10.37;6.40;;;;;;;14.28;48.93;100685.47;5136953;27;20656;-67
2022/12/07 10:33:57;;;;;;;10.50;6.17;;;;;;;14.45;47.95;100681.84;5134707;27;20288;-67
2022/12/07 10:36:27;;;;;;;9.13;5.80;;;;;;;14.31;48.36;100685.16;5137081;27;20215;-68
2022/12/07 10:39:00;;;;;;;7.83;4.63;;;;;;;14.44;48.11;100680.16;5143738;27;20212;-67
2022/12/07 10:41:28;;;;;;;7.10;3.07;;;;;;;14.98;47.09;100683.91;5141895;27;20205;-68
2022/12/07 10:43:59;;;;;;;4.40;2.53;;;;;;;14.67;46.58;100683.81;5142367;27;20207;-70
2022/12/07 10:46:47;;;;;;;8.47;2.50;;;;;;;13.96;47.09;100683.63;5142921;27;20291;-68
2022/12/07 10:49:42;;;;;;;5.50;1.90;;;;;;;13.17;47.50;100690.22;5145016;27;20632;-67
2022/12/07 10:52:17;;;;;;;5.10;1.60;;;;;;;12.73;48.71;100680.63;5138325;27;20205;-69
2022/12/07 10:54:58;;;;;;;3.90;1.90;;;;;;;12.33;49.72;100679.34;5137645;27;20222;-68
2022/12/07 10:57:45;;;;;;;6.73;2.03;;;;;;;12.79;49.87;100677.34;5134182;27;20210;-68
2022/12/07 11:00:19;;;;;;;4.97;2.23;;;;;;;14.46;46.15;100666.66;5146971;27;20209;-68
2022/12/07 11:03:06;;;;;;;8.07;2.27;;;;;;;15.01;44.33;100664.03;5142844;27;20209;-68
2022/12/07 11:05:46;;;;;;;4.20;2.20;;;;;;;14.71;43.86;100659.44;5135027;27;20201;-68
2022/12/07 11:08:22;;;;;;;5.60;2.30;;;;;;;14.31;44.90;100658.47;5138958;27;20236;-70
2022/12/07 11:10:56;;;;;;;4.83;2.27;;;;;;;13.96;45.29;100653.47;5133915;27;20274;-68
2022/12/07 11:13:29;;;;;;;5.40;2.40;;;;;;;14.10;45.69;100660.81;5141207;27;20197;-68
2022/12/07 11:16:23;;;;;;;4.13;2.27;;;;;;;13.77;46.11;100658.09;5141875;27;20215;-68
2022/12/07 11:19:14;;;;;;;6.10;2.20;;;;;;;13.22;47.62;100654.28;5134036;27;20232;-69
2022/12/07 11:21:54;;;;;;;5.93;2.27;;;;;;;12.86;48.07;100643.78;5141074;27;20201;-70
2022/12/07 11:24:32;;;;;;;4.73;2.33;;;;;;;12.58;48.49;100650.25;5134738;27;20207;-69
2022/12/07 11:27:13;;;;;;;6.40;2.63;;;;;;;12.32;48.72;100636.94;5140540;27;20722;-68
2022/12/07 11:29:53;;;;;;;5.20;2.53;;;;;;;12.14;49.34;100636.97;5141166;27;20294;-69
2022/12/07 11:32:47;;;;;;;6.50;2.87;;;;;;;11.95;50.32;100631.84;5140113;27;20658;-69
2022/12/07 11:35:23;;;;;;;4.73;2.47;;;;;;;11.84;51.14;100629.41;5139025;27;20213;-67
2022/12/07 11:37:57;;;;;;;3.93;2.13;;;;;;;11.73;51.06;100627.78;5144747;27;20564;-68
2022/12/07 11:40:28;;;;;;;5.23;2.60;;;;;;;11.62;51.67;100626.19;5134130;27;20211;-68
2022/12/07 11:43:00;;;;;;;4.97;1.87;;;;;;;11.55;51.45;100624.28;5130409;27;20309;-68
2022/12/07 11:45:31;;;;;;;5.67;2.43;;;;;;;11.20;51.19;100625.91;5126350;27;20202;-68
2022/12/07 11:48:03;;;;;;;6.63;3.00;;;;;;;10.76;53.22;100630.16;5124669;27;20290;-68
2022/12/07 11:50:37;;;;;;;5.10;2.00;;;;;;;10.47;54.15;100624.09;5124190;27;20277;-70
2022/12/07 11:53:15;;;;;;;5.73;2.70;;;;;;;10.34;54.61;100618.28;5124722;27;20229;-69